Time;durP1;ratioP1;P1;durP2;ratioP2;P2;SDS_P1;SDS_P2;PMS_P1;PMS_P2;Temp;Humidity;BMP_temperature;BMP_pressure;BME280_temperature;BME280_humidity;BME280_pressure;Samples;Min_cycle;Max_cycle;Signal;HPM_P1;HPM_P2
2021/08/26 00:07:35;;;;;;;3.40;2.37;;;23.90;56.40;;;;;;6198910;23;20167;-84
2021/08/26 00:10:06;;;;;;;2.70;2.40;;;23.90;56.50;;;;;;6199279;23;20431;-85
2021/08/26 00:12:33;;;;;;;2.93;2.23;;;23.90;56.50;;;;;;6217981;23;20194;-84
2021/08/26 00:15:02;;;;;;;2.83;2.20;;;23.90;56.50;;;;;;6226839;23;20393;-84
2021/08/26 00:17:28;;;;;;;2.80;2.47;;;23.90;56.50;;;;;;6227219;23;20417;-84
2021/08/26 00:23:16;;;;;;;2.80;2.43;;;23.90;56.40;;;;;;6228442;23;20177;-84
2021/08/26 00:25:42;;;;;;;2.87;2.10;;;23.90;56.50;;;;;;6228712;23;20425;-84
2021/08/26 00:28:08;;;;;;;2.80;2.33;;;23.90;56.50;;;;;;6252340;23;20848;-84
2021/08/26 00:30:36;;;;;;;3.30;2.23;;;23.90;56.50;;;;;;6253099;23;20428;-84
2021/08/26 00:33:02;;;;;;;3.00;2.20;;;23.90;56.50;;;;;;6227496;23;20151;-84
2021/08/26 00:35:28;;;;;;;3.63;2.93;;;23.90;56.50;;;;;;6229568;23;20442;-84
2021/08/26 00:37:54;;;;;;;2.60;1.50;;;23.90;56.50;;;;;;6229054;23;20373;-84
2021/08/26 00:40:25;;;;;;;3.23;2.30;;;23.90;56.50;;;;;;6229860;23;20163;-84
2021/08/26 00:42:51;;;;;;;3.50;2.47;;;23.90;56.40;;;;;;6255012;23;20144;-84
2021/08/26 00:45:17;;;;;;;2.20;1.70;;;23.90;56.50;;;;;;6230736;23;20397;-84
2021/08/26 00:47:47;;;;;;;2.80;2.23;;;23.90;56.50;;;;;;6230063;23;20159;-84
2021/08/26 00:50:14;;;;;;;3.30;2.23;;;23.90;57.00;;;;;;6229593;23;20158;-84
2021/08/26 00:52:40;;;;;;;3.53;2.60;;;23.90;56.50;;;;;;6230168;23;20409;-84
2021/08/26 00:55:11;;;;;;;2.63;2.10;;;23.90;56.50;;;;;;6231259;23;20417;-84
2021/08/26 00:57:37;;;;;;;2.80;2.10;;;23.90;56.50;;;;;;6229365;23;20475;-84
2021/08/26 01:00:06;;;;;;;3.83;2.33;;;23.90;56.50;;;;;;6230719;23;20378;-84
2021/08/26 01:02:59;;;;;;;2.13;1.93;;;23.90;56.50;;;;;;6229393;23;20397;-84
2021/08/26 01:06:05;;;;;;;3.40;2.20;;;23.90;56.50;;;;;;6231079;23;20754;-84
2021/08/26 01:08:40;;;;;;;2.87;1.97;;;23.90;56.50;;;;;;6227213;23;20436;-84
2021/08/26 01:11:07;;;;;;;2.90;2.10;;;23.90;56.60;;;;;;6227881;23;20381;-85
2021/08/26 01:13:36;;;;;;;2.50;2.30;;;23.80;56.50;;;;;;6200567;23;20379;-84
2021/08/26 01:16:12;;;;;;;3.10;2.40;;;23.90;56.50;;;;;;6200384;23;20421;-84
2021/08/26 01:18:45;;;;;;;3.10;1.97;;;23.90;56.50;;;;;;6174196;23;20367;-84
2021/08/26 01:21:20;;;;;;;2.10;1.80;;;23.90;56.50;;;;;;6174334;23;20415;-85
2021/08/26 01:23:57;;;;;;;1.87;1.67;;;23.90;56.50;;;;;;6174241;23;20383;-85
2021/08/26 01:26:36;;;;;;;2.50;1.77;;;23.90;56.50;;;;;;6200063;23;20384;-85
2021/08/26 01:29:05;;;;;;;2.50;1.90;;;23.90;56.50;;;;;;6149385;23;20414;-85
2021/08/26 01:31:31;;;;;;;2.03;1.80;;;23.90;56.40;;;;;;6174612;23;20846;-84
2021/08/26 01:34:00;;;;;;;3.77;2.10;;;23.90;56.40;;;;;;6173777;23;20842;-84
2021/08/26 01:36:29;;;;;;;2.37;1.90;;;24.00;56.40;;;;;;6200375;23;20439;-84
2021/08/26 01:39:07;;;;;;;2.67;1.90;;;24.00;56.40;;;;;;6200151;23;20458;-84
2021/08/26 01:41:46;;;;;;;2.37;1.73;;;24.00;56.30;;;;;;6174334;23;20384;-84
2021/08/26 01:44:18;;;;;;;2.83;2.03;;;24.00;56.20;;;;;;6174549;23;20384;-84
2021/08/26 01:46:44;;;;;;;2.60;2.10;;;24.00;56.20;;;;;;6174579;23;20383;-84
2021/08/26 01:49:11;;;;;;;3.83;1.67;;;24.00;56.20;;;;;;6174673;23;20394;-84
2021/08/26 01:51:40;;;;;;;2.73;1.90;;;24.00;56.20;;;;;;6174028;23;20166;-87
2021/08/26 01:54:07;;;;;;;2.30;1.53;;;24.10;56.30;;;;;;6174071;23;20391;-84
2021/08/26 01:56:37;;;;;;;2.13;1.70;;;24.10;56.20;;;;;;6200754;23;20438;-84
2021/08/26 01:59:03;;;;;;;2.23;1.63;;;24.10;56.20;;;;;;6200358;23;20367;-84
2021/08/26 02:01:29;;;;;;;2.03;1.83;;;24.10;56.20;;;;;;6174187;23;20414;-84
2021/08/26 02:03:55;;;;;;;3.00;2.00;;;24.10;56.20;;;;;;6173556;23;20849;-84
2021/08/26 02:06:21;;;;;;;2.50;2.30;;;24.10;56.20;;;;;;6200435;23;20159;-84
2021/08/26 02:08:47;;;;;;;2.00;1.50;;;24.10;56.10;;;;;;6199046;23;20156;-84
2021/08/26 02:11:13;;;;;;;2.20;1.77;;;24.10;56.20;;;;;;6199922;23;20148;-84
2021/08/26 02:13:38;;;;;;;2.73;2.10;;;24.10;56.10;;;;;;6173346;23;20152;-85
2021/08/26 02:16:07;;;;;;;2.33;1.97;;;24.10;56.20;;;;;;6173375;23;20235;-84
2021/08/26 02:18:33;;;;;;;1.80;1.50;;;24.10;56.20;;;;;;6173498;23;20156;-84
2021/08/26 02:20:59;;;;;;;2.13;1.90;;;24.10;56.10;;;;;;6174111;23;20387;-84
2021/08/26 02:23:25;;;;;;;2.17;1.73;;;24.10;56.10;;;;;;6173369;23;20152;-84
2021/08/26 02:25:54;;;;;;;2.30;1.60;;;24.10;56.10;;;;;;6173763;23;20163;-84
2021/08/26 02:28:20;;;;;;;1.90;1.70;;;24.10;56.10;;;;;;6199250;23;20379;-84
2021/08/26 02:30:45;;;;;;;1.80;1.47;;;24.10;56.20;;;;;;6173892;23;20386;-84
2021/08/26 02:33:11;;;;;;;2.50;1.93;;;24.10;56.10;;;;;;6199722;23;20168;-85
2021/08/26 02:35:37;;;;;;;2.23;1.63;;;24.10;56.10;;;;;;6199356;23;20155;-85
2021/08/26 02:41:25;;;;;;;2.70;1.80;;;24.10;56.10;;;;;;6199835;23;20143;-85
2021/08/26 02:43:51;;;;;;;2.40;1.43;;;24.10;56.20;;;;;;6200155;23;20391;-84
2021/08/26 02:46:17;;;;;;;3.23;1.63;;;24.10;56.20;;;;;;6174286;23;20717;-85
2021/08/26 02:48:43;;;;;;;2.60;1.80;;;24.10;56.20;;;;;;6199732;23;20152;-85
2021/08/26 02:51:08;;;;;;;2.30;2.10;;;24.10;56.20;;;;;;6173461;23;20723;-85
2021/08/26 02:53:34;;;;;;;2.57;1.93;;;24.10;56.10;;;;;;6173614;23;20394;-85
2021/08/26 02:56:00;;;;;;;2.57;1.60;;;24.10;56.20;;;;;;6199468;23;20171;-85
2021/08/26 02:59:07;;;;;;;2.10;1.63;;;24.10;56.20;;;;;;6173316;23;20379;-85
2021/08/26 03:01:33;;;;;;;4.00;2.10;;;24.10;56.10;;;;;;6199285;23;20383;-86
2021/08/26 03:03:59;;;;;;;2.60;2.00;;;24.10;56.20;;;;;;6172571;23;20394;-86
2021/08/26 03:09:47;;;;;;;2.60;1.97;;;24.10;56.10;;;;;;6198711;23;20366;-85
2021/08/26 03:12:13;;;;;;;3.17;1.70;;;24.10;56.20;;;;;;6198602;23;20399;-86
2021/08/26 03:18:01;;;;;;;3.33;1.80;;;24.10;56.20;;;;;;6199436;23;20151;-85
2021/08/26 03:20:27;;;;;;;2.27;1.93;;;24.10;56.20;;;;;;6173234;23;20379;-85
2021/08/26 03:22:53;;;;;;;2.90;1.70;;;24.10;56.20;;;;;;6173214;23;20230;-85
2021/08/26 03:25:21;;;;;;;1.90;1.70;;;24.10;56.20;;;;;;6172624;23;20378;-85
2021/08/26 03:27:52;;;;;;;2.83;1.63;;;24.10;56.20;;;;;;6173952;23;20152;-85
2021/08/26 03:30:18;;;;;;;2.00;1.50;;;24.10;56.20;;;;;;6199027;23;20394;-86
2021/08/26 03:32:45;;;;;;;1.73;1.40;;;24.10;56.20;;;;;;6173789;23;20874;-85
2021/08/26 03:35:10;;;;;;;2.20;1.53;;;24.10;56.20;;;;;;6173625;23;20399;-85
2021/08/26 03:37:39;;;;;;;2.10;1.33;;;24.10;56.10;;;;;;6172898;23;20489;-85
2021/08/26 03:40:05;;;;;;;2.47;1.60;;;24.10;56.10;;;;;;6173603;23;20162;-85
2021/08/26 03:42:33;;;;;;;1.90;1.70;;;24.10;56.10;;;;;;6200088;23;20417;-85
2021/08/26 03:44:59;;;;;;;2.17;1.90;;;24.10;56.10;;;;;;6173288;23;20379;-85
2021/08/26 03:47:25;;;;;;;3.00;1.80;;;24.10;56.10;;;;;;6199566;23;20439;-85
2021/08/26 03:49:51;;;;;;;2.20;1.83;;;24.10;56.10;;;;;;6199269;23;20162;-85
2021/08/26 03:52:17;;;;;;;2.33;1.33;;;24.10;56.10;;;;;;6172515;23;20375;-85
2021/08/26 03:54:43;;;;;;;2.00;1.50;;;24.10;56.10;;;;;;6173927;23;20179;-85
2021/08/26 03:57:09;;;;;;;3.43;2.00;;;24.10;56.10;;;;;;6173676;23;20234;-85
2021/08/26 03:59:35;;;;;;;2.90;1.50;;;24.10;56.10;;;;;;6199118;23;20151;-85
2021/08/26 04:02:00;;;;;;;2.40;2.00;;;24.10;56.20;;;;;;6200163;23;20418;-85
2021/08/26 04:04:29;;;;;;;1.93;1.73;;;24.10;56.20;;;;;;6172737;23;20384;-84
2021/08/26 04:06:55;;;;;;;2.03;1.47;;;24.10;56.20;;;;;;6173094;23;20156;-84
2021/08/26 04:09:21;;;;;;;1.70;1.30;;;24.10;56.20;;;;;;6173377;23;20825;-84
2021/08/26 04:11:47;;;;;;;1.87;1.30;;;24.10;56.20;;;;;;6188749;23;20194;-84
2021/08/26 04:14:13;;;;;;;2.87;2.33;;;24.10;56.20;;;;;;6230485;23;20135;-84
2021/08/26 04:16:39;;;;;;;2.33;1.90;;;24.10;56.20;;;;;;6229819;23;20179;-84
2021/08/26 04:19:04;;;;;;;2.00;1.77;;;24.10;56.20;;;;;;6256834;23;20161;-84
2021/08/26 04:21:31;;;;;;;3.80;1.50;;;24.10;56.20;;;;;;6232818;23;20432;-84
2021/08/26 04:23:57;;;;;;;2.70;1.90;;;24.10;56.20;;;;;;6232156;23;20150;-84
2021/08/26 04:26:22;;;;;;;2.10;1.40;;;24.10;56.20;;;;;;6232872;23;20374;-84
2021/08/26 04:28:48;;;;;;;2.50;1.80;;;24.10;56.30;;;;;;6255605;23;20162;-85
2021/08/26 04:31:14;;;;;;;2.60;1.57;;;24.10;56.30;;;;;;6255650;23;20166;-85
2021/08/26 04:33:39;;;;;;;2.23;1.70;;;24.10;56.30;;;;;;6231692;23;20154;-85
2021/08/26 04:36:05;;;;;;;1.80;1.50;;;24.10;56.30;;;;;;6232110;23;20173;-84
2021/08/26 04:38:32;;;;;;;2.70;1.80;;;24.10;56.30;;;;;;6237515;23;20143;-85
2021/08/26 04:40:57;;;;;;;2.23;1.70;;;24.10;56.30;;;;;;6262739;23;20151;-84
2021/08/26 04:43:26;;;;;;;2.10;1.90;;;24.10;56.30;;;;;;6262213;23;20393;-84
2021/08/26 04:45:52;;;;;;;2.87;2.20;;;24.20;56.30;;;;;;6236813;23;20175;-84
2021/08/26 04:48:21;;;;;;;2.40;2.03;;;24.20;56.30;;;;;;6261523;23;20382;-84
2021/08/26 04:50:49;;;;;;;2.20;1.70;;;24.20;56.30;;;;;;6262136;23;20178;-85
2021/08/26 04:53:15;;;;;;;2.10;1.90;;;24.20;56.30;;;;;;6261012;23;20410;-84
2021/08/26 04:55:44;;;;;;;1.70;1.53;;;24.20;56.30;;;;;;6236268;23;20377;-84
2021/08/26 04:58:10;;;;;;;2.60;1.80;;;24.20;56.30;;;;;;6261834;23;20151;-85
2021/08/26 05:00:35;;;;;;;2.20;1.70;;;24.20;56.30;;;;;;6261842;23;20385;-85
2021/08/26 05:03:03;;;;;;;2.50;2.00;;;24.20;56.20;;;;;;6262417;23;20604;-85
2021/08/26 05:05:34;;;;;;;2.30;1.80;;;24.20;56.30;;;;;;6262043;23;20214;-85
2021/08/26 05:14:45;;;;;;;2.00;1.73;;;24.20;56.20;;;;;;6176120;23;20398;-86
2021/08/26 05:17:14;;;;;;;2.73;1.80;;;24.20;56.30;;;;;;6150805;23;20435;-86
2021/08/26 05:19:43;;;;;;;2.70;1.90;;;24.20;56.30;;;;;;6149790;23;20584;-86
2021/08/26 05:22:11;;;;;;;3.13;2.13;;;24.20;56.30;;;;;;6150409;23;20415;-85
2021/08/26 05:24:36;;;;;;;2.23;1.83;;;24.20;56.20;;;;;;6174060;23;20383;-85
2021/08/26 05:27:05;;;;;;;1.83;1.43;;;24.20;56.20;;;;;;6173755;23;20372;-86
2021/08/26 05:29:34;;;;;;;1.97;1.77;;;24.30;56.30;;;;;;6147904;23;20153;-86
2021/08/26 05:35:22;;;;;;;1.50;1.33;;;24.30;56.20;;;;;;6171942;23;20742;-84
2021/08/26 05:37:59;;;;;;;2.67;1.80;;;24.30;56.30;;;;;;6173900;23;20483;-85
2021/08/26 05:40:29;;;;;;;3.10;1.73;;;24.30;56.30;;;;;;6155490;23;20146;-84
2021/08/26 05:42:55;;;;;;;2.13;1.60;;;24.30;56.30;;;;;;6263065;23;20378;-82
2021/08/26 05:45:26;;;;;;;2.40;1.80;;;24.30;56.20;;;;;;6239402;23;20361;-84
2021/08/26 05:47:55;;;;;;;2.73;1.97;;;24.30;56.20;;;;;;6263045;23;20144;-83
2021/08/26 05:50:22;;;;;;;2.63;1.80;;;24.30;56.20;;;;;;6238822;23;20409;-83
2021/08/26 05:52:51;;;;;;;2.90;2.03;;;24.30;56.20;;;;;;6262865;23;20433;-83
2021/08/26 05:55:18;;;;;;;2.30;1.77;;;24.30;56.20;;;;;;6238696;23;20367;-82
2021/08/26 05:57:46;;;;;;;3.27;1.63;;;24.30;56.10;;;;;;6239554;23;20413;-83
2021/08/26 06:00:13;;;;;;;1.50;1.30;;;24.40;56.20;;;;;;6237708;23;20463;-83
2021/08/26 06:02:39;;;;;;;2.47;1.90;;;24.40;56.20;;;;;;6239070;23;20389;-82
2021/08/26 06:05:06;;;;;;;2.27;1.67;;;24.40;56.20;;;;;;6238621;23;20390;-83
2021/08/26 06:07:31;;;;;;;2.30;2.10;;;24.40;56.20;;;;;;6240010;23;20374;-84
2021/08/26 06:10:00;;;;;;;2.27;1.63;;;24.40;56.20;;;;;;6263842;23;20382;-83
2021/08/26 06:12:27;;;;;;;2.60;1.87;;;24.40;56.20;;;;;;6264617;23;20166;-83
2021/08/26 06:15:46;;;;;;;1.73;1.50;;;24.40;56.20;;;;;;6270353;23;20346;-83
2021/08/26 06:18:14;;;;;;;2.67;1.40;;;24.40;56.20;;;;;;6245019;23;20391;-83
2021/08/26 06:20:42;;;;;;;2.60;2.10;;;24.40;56.20;;;;;;6245388;23;20386;-84
2021/08/26 06:23:13;;;;;;;2.50;1.90;;;24.40;56.20;;;;;;6246168;23;20852;-83
2021/08/26 06:25:42;;;;;;;2.47;1.93;;;24.40;56.20;;;;;;6244889;23;20445;-83
2021/08/26 06:28:10;;;;;;;2.70;2.10;;;24.40;56.20;;;;;;6270089;23;20454;-84
2021/08/26 06:33:58;;;;;;;3.00;2.07;;;24.40;56.20;;;;;;6271385;23;20361;-83
2021/08/26 06:36:24;;;;;;;2.47;1.70;;;24.30;56.20;;;;;;6243198;23;20440;-83
2021/08/26 06:39:14;;;;;;;2.50;1.87;;;24.40;56.30;;;;;;6244530;23;20378;-82
2021/08/26 06:41:47;;;;;;;1.90;1.40;;;24.40;56.30;;;;;;6244014;23;20456;-82
2021/08/26 06:44:18;;;;;;;2.03;1.53;;;24.30;56.20;;;;;;6242090;23;20377;-83
2021/08/26 06:46:53;;;;;;;2.00;1.80;;;24.40;56.30;;;;;;6270667;23;20362;-83
2021/08/26 06:49:22;;;;;;;2.00;1.67;;;24.40;56.30;;;;;;6271207;23;20371;-83
2021/08/26 06:52:32;;;;;;;2.20;1.50;;;24.40;56.30;;;;;;6249119;23;20433;-83
2021/08/26 06:58:40;;;;;;;1.90;1.60;;;24.40;56.20;;;;;;6235527;23;20358;-83
2021/08/26 07:01:06;;;;;;;1.73;1.50;;;24.40;56.20;;;;;;6263625;23;20366;-83
2021/08/26 07:03:40;;;;;;;2.43;1.30;;;24.40;56.30;;;;;;6241030;23;20378;-83
2021/08/26 07:06:09;;;;;;;2.47;2.27;;;24.40;56.20;;;;;;6242076;23;20122;-83
2021/08/26 07:08:44;;;;;;;2.30;1.53;;;24.40;56.20;;;;;;6241358;23;20370;-83
2021/08/26 07:11:10;;;;;;;2.10;1.70;;;24.50;56.20;;;;;;6240230;23;20393;-84
2021/08/26 07:13:53;;;;;;;2.23;1.57;;;24.50;56.20;;;;;;6241153;23;20397;-84
2021/08/26 07:16:21;;;;;;;2.70;1.60;;;24.50;56.20;;;;;;6265935;23;20398;-83
2021/08/26 07:18:51;;;;;;;5.30;1.80;;;24.50;56.20;;;;;;6239875;23;20389;-84
2021/08/26 07:21:48;;;;;;;3.00;1.77;;;24.50;56.20;;;;;;6241344;23;20430;-83
2021/08/26 07:24:25;;;;;;;2.40;2.17;;;24.50;56.20;;;;;;6241928;23;20358;-83
2021/08/26 07:26:59;;;;;;;2.37;1.93;;;24.60;56.20;;;;;;6241467;23;20366;-83
2021/08/26 07:29:25;;;;;;;2.20;1.50;;;24.50;56.20;;;;;;6215996;23;20382;-82
2021/08/26 07:31:51;;;;;;;1.70;1.37;;;24.60;56.20;;;;;;6265298;23;20408;-83
2021/08/26 07:34:17;;;;;;;3.50;1.60;;;24.60;56.20;;;;;;6265479;23;20159;-83
2021/08/26 07:36:43;;;;;;;2.70;1.60;;;24.60;56.20;;;;;;6265743;23;20426;-83
2021/08/26 07:39:15;;;;;;;2.53;1.63;;;24.60;56.20;;;;;;6265450;23;20409;-83
2021/08/26 07:41:43;;;;;;;2.13;1.57;;;24.60;56.10;;;;;;6265731;23;20150;-83
2021/08/26 07:44:09;;;;;;;3.23;1.83;;;24.60;56.10;;;;;;6239894;23;20375;-83
2021/08/26 07:46:35;;;;;;;2.60;1.93;;;24.60;56.10;;;;;;6240980;23;20397;-83
2021/08/26 07:49:04;;;;;;;2.27;1.57;;;24.60;56.10;;;;;;6240081;23;20139;-82
2021/08/26 07:58:21;;;;;;;1.80;1.50;;;24.70;56.20;;;;;;6120692;23;20422;-83
2021/08/26 08:00:51;;;;;;;2.30;1.83;;;24.60;56.20;;;;;;6120415;23;20374;-83
2021/08/26 08:03:32;;;;;;;1.73;1.40;;;24.60;56.20;;;;;;6117833;23;20449;-83
2021/08/26 08:06:07;;;;;;;2.70;1.47;;;24.60;56.20;;;;;;6120377;23;20374;-83
2021/08/26 08:08:35;;;;;;;1.80;1.37;;;24.70;56.30;;;;;;6120805;23;20400;-84
2021/08/26 08:11:01;;;;;;;1.90;1.43;;;24.60;56.20;;;;;;6096176;23;20410;-84
2021/08/26 08:13:43;;;;;;;2.77;1.50;;;24.60;56.20;;;;;;6120482;23;20369;-84
2021/08/26 08:16:13;;;;;;;2.07;1.87;;;24.70;56.30;;;;;;6093994;23;20433;-84
2021/08/26 08:18:53;;;;;;;2.27;1.30;;;24.70;56.30;;;;;;6119736;23;20402;-84
2021/08/26 08:21:19;;;;;;;3.90;2.00;;;24.70;56.30;;;;;;6120551;23;20401;-84
2021/08/26 08:24:02;;;;;;;2.57;1.80;;;24.70;56.20;;;;;;6124422;23;20381;-84
2021/08/26 08:26:29;;;;;;;2.10;1.70;;;24.70;56.20;;;;;;6125717;23;20194;-84
2021/08/26 08:28:58;;;;;;;1.97;1.43;;;24.80;56.40;;;;;;6125066;23;20369;-84
2021/08/26 08:34:52;;;;;;;2.00;1.80;;;24.80;56.30;;;;;;6209361;23;20366;-84
2021/08/26 08:37:24;;;;;;;1.70;1.50;;;24.70;56.30;;;;;;6208934;23;20423;-83
2021/08/26 08:40:21;;;;;;;2.33;1.63;;;24.70;56.30;;;;;;6184073;23;20367;-83
2021/08/26 08:43:12;;;;;;;2.00;1.60;;;24.70;56.30;;;;;;6207369;23;20372;-84
2021/08/26 08:49:10;;;;;;;2.17;1.47;;;24.70;56.30;;;;;;6178304;23;20391;-84
2021/08/26 08:52:48;;;;;;;2.30;1.43;;;24.70;56.30;;;;;;6062035;23;20379;-84
2021/08/26 08:55:26;;;;;;;2.07;1.43;;;24.70;56.30;;;;;;6062393;23;20364;-84
2021/08/26 08:57:58;;;;;;;1.53;1.20;;;24.70;56.40;;;;;;6061731;23;20431;-83
2021/08/26 09:00:28;;;;;;;2.03;1.57;;;24.70;56.40;;;;;;6037952;23;20376;-83
2021/08/26 09:03:04;;;;;;;2.10;1.60;;;24.70;56.40;;;;;;6051580;23;20411;-83
2021/08/26 09:05:50;;;;;;;2.03;1.57;;;24.80;56.50;;;;;;6062118;23;20403;-83
2021/08/26 10:53:59;;;;;;;2.30;1.60;;;24.80;56.60;;;;;;6087340;23;20366;-85
2021/08/26 11:03:50;;;;;;;2.07;1.63;;;24.80;56.60;;;;;;6034630;23;20418;-83
2021/08/26 11:06:53;;;;;;;5.33;1.57;;;24.80;56.60;;;;;;6033234;23;20907;-83
2021/08/26 11:13:09;;;;;;;2.90;2.00;;;24.80;56.70;;;;;;5950559;24;20391;-85
2021/08/26 11:22:22;;;;;;;1.97;1.40;;;24.80;56.60;;;;;;5974226;24;20369;-86
2021/08/26 11:25:29;;;;;;;2.27;1.43;;;24.80;56.70;;;;;;5971884;24;20438;-87
2021/08/26 11:38:58;;;;;;;1.77;1.23;;;24.80;56.60;;;;;;5974935;23;20445;-87
2021/08/26 11:41:42;;;;;;;2.23;1.43;;;24.70;56.40;;;;;;5948490;24;20413;-86
2021/08/26 11:55:00;;;;;;;;;;;;;;;;;;;;;
2021/08/26 11:57:43;;;;;;;1.97;1.40;;;24.70;56.40;;;;;;5925610;24;20446;-87
2021/08/26 12:00:57;;;;;;;2.03;1.43;;;24.70;56.40;;;;;;5919686;24;20417;-86
2021/08/26 12:14:09;;;;;;;;;;;;;;;;;;;;;
2021/08/26 12:44:42;;;;;;;7.33;5.30;;;24.60;56.30;;;;;;5865836;24;20387;-86
2021/08/26 12:47:14;;;;;;;5.90;4.67;;;24.60;56.30;;;;;;5908931;24;20432;-86
2021/08/26 12:50:04;;;;;;;9.70;5.67;;;24.60;56.30;;;;;;5923656;24;20399;-87
2021/08/26 12:52:40;;;;;;;7.67;4.90;;;24.60;56.20;;;;;;5947029;24;20379;-87
2021/08/26 12:55:22;;;;;;;8.50;5.77;;;24.60;56.20;;;;;;5947281;24;20394;-87
2021/08/26 12:58:16;;;;;;;5.83;4.33;;;24.70;56.30;;;;;;5947472;24;20466;-86
2021/08/26 13:00:51;;;;;;;6.37;4.87;;;24.70;56.30;;;;;;6041416;23;20418;-87
2021/08/26 13:03:55;;;;;;;6.77;4.53;;;24.60;56.20;;;;;;6089211;23;20402;-86
2021/08/26 13:06:52;;;;;;;5.40;4.40;;;24.70;56.30;;;;;;6066215;23;20379;-86
2021/08/26 13:09:41;;;;;;;7.17;5.10;;;24.70;56.30;;;;;;6089452;23;20430;-86
2021/08/26 13:12:20;;;;;;;6.27;3.90;;;24.70;56.30;;;;;;6067064;23;20382;-85
2021/08/26 13:14:58;;;;;;;5.80;4.10;;;24.70;56.30;;;;;;6087766;23;20873;-86
2021/08/26 13:21:32;;;;;;;7.23;4.03;;;24.70;56.30;;;;;;6118980;23;20446;-86
2021/08/26 13:24:34;;;;;;;4.17;3.50;;;24.60;56.20;;;;;;6092932;23;20385;-87
2021/08/26 13:27:01;;;;;;;4.33;3.90;;;24.60;56.30;;;;;;6116845;23;20389;-87
2021/08/26 13:29:36;;;;;;;3.67;3.30;;;24.60;56.30;;;;;;6117119;23;20468;-86
2021/08/26 13:32:36;;;;;;;3.77;3.20;;;24.60;56.30;;;;;;6116312;23;20386;-86
2021/08/26 13:35:08;;;;;;;4.53;3.20;;;24.60;56.30;;;;;;6118101;23;20393;-87
2021/08/26 13:37:44;;;;;;;3.87;3.10;;;24.60;56.30;;;;;;6117431;23;20461;-87
2021/08/26 13:50:47;;;;;;;5.03;3.80;;;24.60;56.30;;;;;;5921840;24;20482;-86
2021/08/26 13:53:36;;;;;;;4.13;2.80;;;24.50;56.30;;;;;;5921795;24;20416;-86
2021/08/26 14:31:17;;;;;;;2.77;2.17;;;24.60;56.30;;;;;;5976827;24;20746;-84
2021/08/26 14:47:53;;;;;;;1.97;1.63;;;24.60;56.20;;;;;;5975728;24;20401;-84
2021/08/26 15:04:22;;;;;;;3.47;2.53;;;24.70;56.20;;;;;;5924133;24;20387;-84
2021/08/26 15:17:30;;;;;;;2.53;2.20;;;24.70;56.20;;;;;;5923649;24;20450;-83
2021/08/26 15:23:57;;;;;;;2.07;1.60;;;24.70;56.10;;;;;;5916989;24;20396;-83
2021/08/26 15:27:17;;;;;;;4.10;1.93;;;24.60;56.00;;;;;;5922627;24;20441;-83
2021/08/26 15:37:10;;;;;;;2.73;1.70;;;24.70;56.00;;;;;;5877740;24;20447;-85
2021/08/26 15:39:36;;;;;;;2.87;2.50;;;24.70;56.00;;;;;;5918351;24;20475;-83
2021/08/26 16:05:39;;;;;;;1.57;1.30;;;24.60;55.60;;;;;;5976073;23;20406;-84
2021/08/26 16:08:17;;;;;;;;;;;;;;;;;;;;;
2021/08/26 16:10:51;;;;;;;2.60;1.50;;;24.60;55.80;;;;;;5941191;24;20388;-84
2021/08/26 16:13:25;;;;;;;2.73;2.00;;;24.60;55.60;;;;;;5921275;24;20407;-84
2021/08/26 16:16:08;;;;;;;2.00;1.60;;;24.60;55.70;;;;;;5928149;24;20391;-84
2021/08/26 16:26:24;;;;;;;1.87;1.50;;;24.60;55.70;;;;;;5978881;23;20478;-84
2021/08/26 16:29:19;;;;;;;2.57;1.70;;;24.60;55.80;;;;;;5975823;24;20386;-84
2021/08/26 16:31:58;;;;;;;2.80;1.67;;;24.60;55.80;;;;;;5976401;24;20479;-84
2021/08/26 16:34:42;;;;;;;3.60;1.60;;;24.50;55.70;;;;;;5954636;24;20485;-84
2021/08/26 16:54:52;;;;;;;2.80;1.60;;;24.50;55.80;;;;;;6030050;23;20376;-82
2021/08/26 16:57:19;;;;;;;1.63;1.33;;;24.50;55.70;;;;;;6030800;23;20428;-81
2021/08/26 16:59:49;;;;;;;2.70;1.73;;;24.50;55.70;;;;;;6007945;23;20403;-81
2021/08/26 17:02:15;;;;;;;3.53;1.40;;;24.60;55.70;;;;;;6030896;23;20156;-81
2021/08/26 17:05:09;;;;;;;2.50;1.60;;;24.60;55.60;;;;;;6027329;23;20384;-87
2021/08/26 17:07:49;;;;;;;2.10;1.37;;;24.70;55.60;;;;;;6030634;23;20380;-81
2021/08/26 17:10:23;;;;;;;2.60;1.83;;;24.70;55.60;;;;;;5985004;23;20522;-85
2021/08/26 17:13:06;;;;;;;1.90;1.60;;;24.70;55.60;;;;;;6030090;23;20532;-84
2021/08/26 17:15:37;;;;;;;2.30;1.70;;;24.70;55.60;;;;;;6002583;24;20385;-84
2021/08/26 17:24:28;;;;;;;4.13;1.57;;;24.70;55.70;;;;;;6141671;23;20400;-86
2021/08/26 17:26:55;;;;;;;2.43;1.67;;;24.60;55.70;;;;;;6115247;23;20377;-86
2021/08/26 17:32:40;;;;;;;2.63;1.60;;;24.70;55.80;;;;;;6174571;23;20394;-86
2021/08/26 17:39:07;;;;;;;1.70;1.47;;;24.70;55.80;;;;;;6204739;23;20378;-86
2021/08/26 17:48:35;;;;;;;2.30;1.93;;;24.70;55.80;;;;;;6208985;23;20378;-85
2021/08/26 17:51:29;;;;;;;2.03;1.50;;;24.70;55.90;;;;;;6210806;23;20415;-85
2021/08/26 17:54:00;;;;;;;2.73;1.63;;;24.60;55.80;;;;;;6224990;23;20413;-85
2021/08/26 18:03:55;;;;;;;1.87;1.40;;;24.70;55.80;;;;;;6203711;23;20385;-85
2021/08/26 18:10:02;;;;;;;1.93;1.50;;;24.70;55.90;;;;;;6238565;23;20349;-86
2021/08/26 18:16:02;;;;;;;1.83;1.20;;;24.70;55.90;;;;;;6233843;23;20763;-85
2021/08/26 18:25:35;;;;;;;2.97;1.43;;;24.80;55.90;;;;;;6233758;23;20369;-87
2021/08/26 18:28:08;;;;;;;2.20;1.67;;;24.80;55.90;;;;;;6231068;23;20923;-88
2021/08/26 18:30:42;;;;;;;2.43;1.70;;;24.80;55.90;;;;;;6230279;23;20385;-87
2021/08/26 18:33:16;;;;;;;2.00;1.60;;;24.80;55.90;;;;;;6230166;23;20393;-87
2021/08/26 18:36:18;;;;;;;3.40;1.57;;;24.80;55.80;;;;;;6230101;23;20370;-87
2021/08/26 18:39:19;;;;;;;2.97;1.97;;;24.80;55.80;;;;;;6229830;23;20396;-87
2021/08/26 19:05:35;;;;;;;2.13;1.37;;;24.70;56.00;;;;;;6140784;23;20364;-86
2021/08/26 19:33:01;;;;;;;3.03;1.80;;;24.50;56.10;;;;;;6032740;23;20360;-84
2021/08/26 20:13:37;;;;;;;;;;;;;;;;;;;;;
2021/08/26 20:26:29;;;;;;;1.37;1.00;;;24.40;56.20;;;;;;5945167;23;20442;-85
2021/08/26 20:36:52;;;;;;;;;;;;;;;;;;;;;
2021/08/26 20:49:42;;;;;;;2.70;1.30;;;24.40;56.20;;;;;;5893062;24;20437;-86
2021/08/26 20:58:41;;;;;;;1.87;1.20;;;24.40;56.20;;;;;;5976084;23;20409;-87
2021/08/26 21:01:09;;;;;;;1.17;1.07;;;24.40;56.20;;;;;;5974587;24;20401;-86
2021/08/26 21:03:46;;;;;;;1.20;1.07;;;24.40;56.20;;;;;;5974767;24;20371;-86
2021/08/26 21:06:30;;;;;;;1.70;1.20;;;24.40;56.10;;;;;;5976171;24;20366;-86
2021/08/26 21:09:16;;;;;;;1.60;1.10;;;24.40;56.10;;;;;;5975753;24;20409;-86
2021/08/26 21:11:53;;;;;;;1.93;1.30;;;24.40;56.00;;;;;;5971896;24;20378;-87
2021/08/26 21:14:32;;;;;;;2.73;1.10;;;24.40;55.90;;;;;;5953624;24;20382;-87
2021/08/26 21:17:11;;;;;;;1.97;1.07;;;24.40;55.80;;;;;;6047350;23;20972;-87
2021/08/26 21:20:15;;;;;;;2.70;1.17;;;24.40;56.30;;;;;;6060369;23;20380;-86
2021/08/26 21:23:02;;;;;;;1.20;0.90;;;24.40;55.80;;;;;;6033158;23;20387;-87
2021/08/26 21:32:41;;;;;;;1.47;1.20;;;24.30;55.80;;;;;;5975235;23;21009;-86
2021/08/26 21:35:24;;;;;;;1.97;1.10;;;24.30;55.90;;;;;;5952149;24;20434;-87
2021/08/26 21:37:53;;;;;;;1.27;1.10;;;24.30;56.00;;;;;;5975473;24;20449;-86
2021/08/26 21:40:51;;;;;;;;;;;;;;;;;;;;;
2021/08/26 21:50:27;;;;;;;1.53;0.90;;;24.30;55.90;;;;;;5950313;23;20465;-86
2021/08/26 22:03:55;;;;;;;;;;;;;;;;;;;;;
2021/08/26 22:06:39;;;;;;;1.30;1.00;;;24.30;56.10;;;;;;5947595;24;20382;-87
2021/08/26 22:09:30;;;;;;;;;;;;;;;;;;;;;
2021/08/26 22:15:42;;;;;;;1.37;1.03;;;24.40;56.10;;;;;;5947233;24;20373;-87
2021/08/26 22:18:14;;;;;;;1.97;1.10;;;24.40;56.10;;;;;;5950913;24;20438;-86
2021/08/26 22:21:57;;;;;;;;;;;;;;;;;;;;;
2021/08/26 22:28:41;;;;;;;1.30;1.10;;;24.50;56.10;;;;;;5969814;24;20413;-85
2021/08/26 22:31:07;;;;;;;1.40;1.00;;;24.50;56.10;;;;;;5945421;24;20395;-85
2021/08/26 22:33:36;;;;;;;1.30;1.03;;;24.40;56.10;;;;;;5941998;24;20403;-85
2021/08/26 22:36:10;;;;;;;1.60;1.20;;;24.50;56.10;;;;;;5919545;24;20387;-85
2021/08/26 22:38:42;;;;;;;1.43;1.00;;;24.50;56.10;;;;;;6031821;23;20424;-85
2021/08/26 22:41:09;;;;;;;1.03;0.87;;;24.50;56.00;;;;;;6032756;23;20380;-85
2021/08/26 22:43:39;;;;;;;1.30;1.00;;;24.50;56.00;;;;;;6030705;23;20390;-86
2021/08/26 22:46:08;;;;;;;1.53;1.10;;;24.50;56.00;;;;;;6067463;23;20436;-85
2021/08/26 22:48:35;;;;;;;1.47;1.27;;;24.50;56.00;;;;;;6091775;23;20408;-86
2021/08/26 22:51:07;;;;;;;1.00;0.90;;;24.50;55.90;;;;;;6117373;23;20570;-86
2021/08/26 22:53:52;;;;;;;1.37;1.00;;;24.50;55.90;;;;;;6119642;23;20373;-86
2021/08/26 22:56:46;;;;;;;1.50;1.00;;;24.50;55.90;;;;;;6117028;23;20546;-87
2021/08/26 22:59:22;;;;;;;1.50;1.17;;;24.50;55.90;;;;;;6140953;23;20381;-87
2021/08/26 23:02:10;;;;;;;1.43;1.07;;;24.50;55.90;;;;;;6161461;23;20378;-86
2021/08/26 23:04:45;;;;;;;1.17;0.90;;;24.50;55.90;;;;;;6231218;23;20438;-86
2021/08/26 23:07:18;;;;;;;1.20;0.80;;;24.60;56.00;;;;;;6231030;23;20477;-86
2021/08/26 23:09:51;;;;;;;1.40;1.00;;;24.50;55.90;;;;;;6234041;23;20365;-86